• Join FlightAware (Why Join?)
  • Login
  • US Flag 
05:17AM EDT


 

Airport Tracker/Info


-or-


 

Live Flight TrackerFlight Track Log ✈ UAL3842 ✈ 15-Jun-2013 ✈ KCLE - KIAD

Flight Track Log - Related Links

Times and Time Zones

All times are in EDT time to prevent confusion due to time zone crossing. See the UAL3842 flight status page for this flight to view local times or setup timezone preferences in your user account.

Time Position Orientation Groundspeed Altitude Reporting Facility
EDT Latitude Longitude Course Direction KTS MPH feet Rate Location/Type
02:26PM 41.3564 -81.8917 191° South 190 219 3,000  Level Cleveland Center
02:27PM 41.3069 -81.8325 138° Southeast 212 244 4,500 1,800 Climbing Cleveland Center
02:28PM 41.2786 -81.7408 112° Southeast 253 291 6,800 2,040 Climbing Cleveland Center
02:29PM 41.1782 -81.3618 127° Southeast  Level FlightAware Approximate
02:29PM 41.2525 -81.6519 111° Southeast 273 314 8,600  Level Cleveland Center
02:30PM 41.1176 -81.2441 118° Southeast  Level FlightAware Approximate
02:30PM 41.2161 -81.5328 112° Southeast 293 337 10,300  Level Cleveland Center
02:31PM 41.1772 -81.4108 113° Southeast 325 374 11,000 1,020 Climbing Cleveland Center
02:32PM 41.1386 -81.2972 114° Southeast 366 421 12,400 1,260 Climbing Cleveland Center
02:33PM 41.0661 -81.1833 130° Southeast 370 426 13,600 1,200 Climbing Cleveland Center
02:34PM 40.9581 -81.1467 166° South 361 415 14,800 1,320 Climbing Cleveland Center
02:35PM 40.8497 -81.1100 166° South 389 448 16,300 1,440 Climbing Cleveland Center
02:36PM 40.7436 -81.0736 165° South 398 458 17,700 1,200 Climbing Cleveland Center
02:37PM 40.6500 -81.0372 164° South 398 458 18,700 900 Climbing Cleveland Center
02:38PM 40.5522 -80.9631 150° Southeast 398 458 19,500 1,080 Climbing Cleveland Center
02:39PM 40.4650 -80.8642 139° Southeast 405 466 20,900 1,380 Climbing Cleveland Center
02:40PM 40.3775 -80.7631 139° Southeast 410 472 22,300 1,020 Climbing Cleveland Center
02:41PM 40.2903 -80.6675 140° Southeast 415 478 23,000 300 Climbing Cleveland Center
02:42PM 40.1944 -80.5614 140° Southeast 428 493 23,000  Level Cleveland Center
02:43PM 40.0964 -80.4528 140° Southeast 453 521 23,000  Level Cleveland Center
02:44PM 39.9939 -80.3392 140° Southeast 470 541 23,000  Level Cleveland Center
02:45PM 39.8914 -80.2258 140° Southeast 482 555 23,000  Level Cleveland Center
02:46PM 39.7847 -80.1075 140° Southeast 482 555 23,000  Level Cleveland Center
02:47PM 39.6822 -79.9922 139° Southeast 487 560 23,000  Level Cleveland Center
02:48PM 39.5792 -79.8747 139° Southeast 487 560 23,000  Level Cleveland Center
02:49PM 39.5397 -79.7547 113° Southeast 470 541 23,000  Level Washington Center
02:50PM 39.5100 -79.5833 103° East 450 518 23,000  Level Washington Center
02:51PM 39.4781 -79.4097 103° East 472 543 23,000  Level Washington Center
02:52PM 39.4497 -79.2522 103° East 489 563 23,000  Level Washington Center
02:53PM 39.4192 -79.0867 103° East 494 568 23,000 -840 Level Washington Center
02:54PM 39.3903 -78.9322 104° East 466 536 21,400 -1,920 Descending Washington Center
02:55PM 39.3631 -78.7833 103° East 437 503 19,300 -2,220 Descending Washington Center
02:56PM 39.3394 -78.6456 102° East 417 480 17,100 -2,100 Descending Washington Center
02:57PM 39.3156 -78.5131 103° East 397 457 15,100 -2,100 Descending Washington Center
02:58PM 39.2894 -78.3858 105° East 376 433 12,900 -1,920 Descending Washington Center
02:59PM 39.2419 -78.2794 120° Southeast 355 409 11,300 -1,260 Descending Washington Center
03:00PM 39.1919 -78.1867 125° Southeast 333 383 10,500 -1,260 Descending Washington Center
03:01PM 39.1436 -78.0967 125° Southeast 321 369 8,800 -1,740 Descending Washington Center
03:02PM 39.0997 -78.0122 124° Southeast 299 344 7,000 -900 Descending Washington Center
03:03PM 39.0553 -77.9306 125° Southeast 293 337 7,000  Level Washington Center
03:04PM 39.0072 -77.8356 123° Southeast 288 331 7,000 -360 Level Washington Center
03:06PM 38.9333 -77.6167 113° Southeast 275 316 6,000 -300 Descending Potomac TRACON
03:07PM 38.8667 -77.5833 159° South 239 275 6,000 -540 Level Potomac TRACON
03:08PM 38.8167 -77.5667 165° South 209 241 5,000 -1,020 Descending Potomac TRACON